Аэропорт: Черновцы. Черновцы

ICAO: UKLN

METAR:
2019/05/26 06:00
UKLN 260600Z 30004MPS 250V340 CAVOK 16/13 Q1015 R33/09//70 NOSIG
METAR:
2018/06/09 15:36
TAF 
      AMD TAF 
      AMD UKLN 091529Z 0915/1024 04005MPS 9999 BKN033CB TX28/0916Z TN17/0924Z 
      TEMPO 0916/0921 VRB09G14MPS 2100 -TSRA BKN007 BKN020CB